createdAt,value
2023-03-23T00:02:44.425Z,27.00
2023-03-23T00:06:42.548Z,28.83
2023-03-23T00:10:42.746Z,29.82
2023-03-23T00:14:42.934Z,28.99
2023-03-23T00:18:43.136Z,28.37
2023-03-23T00:22:43.359Z,29.00
2023-03-23T00:26:48.035Z,28.98
2023-03-23T00:30:43.535Z,28.72
2023-03-23T00:34:43.479Z,30.37
2023-03-23T00:38:43.624Z,28.28
2023-03-23T00:42:43.855Z,29.34
2023-03-23T00:46:43.814Z,28.38
2023-03-23T00:50:43.766Z,27.90
2023-03-23T00:54:43.731Z,28.72
2023-03-23T00:58:43.679Z,27.26
2023-03-23T01:02:43.645Z,25.20
2023-03-23T01:06:43.619Z,27.85
2023-03-23T01:10:43.583Z,28.59
2023-03-23T01:14:43.527Z,28.18
2023-03-23T01:18:43.484Z,27.46
2023-03-23T01:22:43.467Z,26.81
2023-03-23T01:26:43.625Z,27.80
2023-03-23T01:30:43.863Z,28.56
2023-03-23T01:34:43.817Z,27.42
2023-03-23T01:38:43.783Z,28.36
2023-03-23T01:42:43.750Z,26.16
2023-03-23T01:46:43.706Z,28.41
2023-03-23T01:50:43.687Z,25.54
2023-03-23T01:54:43.624Z,26.13
2023-03-23T01:58:43.598Z,27.59
2023-03-23T02:02:43.573Z,26.14
2023-03-23T02:06:43.523Z,26.93
2023-03-23T02:10:43.529Z,28.19
2023-03-23T02:14:44.477Z,27.80
2023-03-23T02:18:43.500Z,27.33
2023-03-23T02:22:43.465Z,27.43
2023-03-23T02:26:43.426Z,26.88
2023-03-23T02:30:43.373Z,25.41
2023-03-23T02:34:43.356Z,27.23
2023-03-23T02:38:43.304Z,28.92
2023-03-23T02:42:43.264Z,27.03
2023-03-23T02:46:43.240Z,29.58
2023-03-23T02:50:43.187Z,26.81
2023-03-23T02:54:43.164Z,27.20
2023-03-23T02:58:43.110Z,26.57
2023-03-23T03:02:43.087Z,25.58
2023-03-23T03:06:43.073Z,25.08
2023-03-23T03:10:43.008Z,26.99
2023-03-23T03:14:42.985Z,26.68
2023-03-23T03:18:42.922Z,26.33
2023-03-23T03:22:42.899Z,26.06
2023-03-23T03:26:42.938Z,27.66
2023-03-23T03:30:43.155Z,26.08
2023-03-23T03:34:43.119Z,25.67
2023-03-23T03:38:43.059Z,26.88
2023-03-23T03:42:43.042Z,26.95
2023-03-23T03:46:43.003Z,26.67
2023-03-23T03:50:42.951Z,28.74
2023-03-23T03:54:42.928Z,27.47
2023-03-23T03:58:42.897Z,27.30
2023-03-23T04:02:42.853Z,27.71
2023-03-23T04:06:42.795Z,25.66
2023-03-23T04:10:42.826Z,28.42
2023-03-23T04:14:43.058Z,28.41
2023-03-23T04:18:43.264Z,27.98
2023-03-23T04:22:44.249Z,29.21
2023-03-23T04:26:43.181Z,27.88
2023-03-23T04:30:43.393Z,27.95
2023-03-23T04:34:43.360Z,28.42
2023-03-23T04:38:43.306Z,28.60
2023-03-23T04:42:43.264Z,28.17
2023-03-23T04:46:43.250Z,28.40
2023-03-23T04:50:43.200Z,28.01
2023-03-23T04:54:43.151Z,28.25
2023-03-23T04:58:43.137Z,30.14
2023-03-23T05:02:43.078Z,29.41
2023-03-23T05:06:43.140Z,30.07
2023-03-23T05:10:43.087Z,29.80
2023-03-23T05:14:43.255Z,29.69
2023-03-23T05:18:43.264Z,26.40
2023-03-23T05:22:42.987Z,27.51
2023-03-23T05:26:43.255Z,28.48
2023-03-23T05:30:43.251Z,27.28
2023-03-23T05:34:42.895Z,26.57
2023-03-23T05:38:42.828Z,27.88
2023-03-23T05:42:43.268Z,27.00
2023-03-23T05:46:42.893Z,28.17
2023-03-23T05:50:42.855Z,27.78
2023-03-23T05:54:42.816Z,28.16
2023-03-23T05:58:42.785Z,29.75
2023-03-23T06:02:42.730Z,29.44
2023-03-23T06:06:42.719Z,30.53
2023-03-23T06:10:42.780Z,31.37
2023-03-23T06:14:42.765Z,31.97
2023-03-23T06:18:42.587Z,37.28
2023-03-23T06:22:42.571Z,35.92
2023-03-23T06:26:42.524Z,38.02
2023-03-23T06:30:42.545Z,37.15
2023-03-23T06:34:42.737Z,13.12
2023-03-23T06:38:43.292Z,46.25
2023-03-23T06:42:42.921Z,48.20
2023-03-23T06:46:43.118Z,53.87
2023-03-23T06:50:43.283Z,62.73
2023-03-23T06:54:43.471Z,59.42
2023-03-23T06:58:43.566Z,76.54
2023-03-23T07:02:43.665Z,97.45
2023-03-23T07:06:43.821Z,102.95
2023-03-23T07:10:44.309Z,106.27
2023-03-23T07:14:44.305Z,128.71
2023-03-23T07:18:44.365Z,134.04
2023-03-23T07:22:44.057Z,136.50
2023-03-23T07:26:44.189Z,135.82
2023-03-23T07:30:44.815Z,134.97
2023-03-23T07:34:44.360Z,132.36
2023-03-23T07:38:44.820Z,142.98
2023-03-23T07:42:44.326Z,143.51
2023-03-23T07:46:44.308Z,134.37
2023-03-23T07:50:44.345Z,118.72
2023-03-23T07:54:44.161Z,122.03
2023-03-23T07:58:44.120Z,112.17
2023-03-23T08:02:44.088Z,102.78
2023-03-23T08:06:44.033Z,96.66
2023-03-23T08:10:44.002Z,93.15
2023-03-23T08:14:44.200Z,92.18
2023-03-23T08:18:43.952Z,95.76
2023-03-23T08:22:51.385Z,91.94
2023-03-23T08:26:45.339Z,86.79
2023-03-23T08:30:43.828Z,60.72
2023-03-23T08:34:43.853Z,89.08
2023-03-23T08:38:44.330Z,96.59
2023-03-23T08:42:47.300Z,122.99
2023-03-23T08:46:44.860Z,120.97
2023-03-23T08:50:43.808Z,119.96
2023-03-23T08:54:43.760Z,112.41
2023-03-23T08:58:43.836Z,106.74
2023-03-23T09:02:43.835Z,101.28
2023-03-23T09:06:43.673Z,98.49
2023-03-23T09:10:43.614Z,113.11
2023-03-23T09:14:43.592Z,117.10
2023-03-23T09:18:43.574Z,119.62
2023-03-23T09:22:43.861Z,106.03
2023-03-23T09:26:43.576Z,100.03
2023-03-23T09:30:53.079Z,100.68
2023-03-23T09:34:44.737Z,105.27
2023-03-23T09:38:43.674Z,89.71
2023-03-23T09:42:43.971Z,85.15
2023-03-23T09:46:44.092Z,87.03
2023-03-23T09:50:44.383Z,89.76
2023-03-23T09:54:44.385Z,78.67
2023-03-23T09:58:45.861Z,87.39
2023-03-23T10:02:44.201Z,93.87
2023-03-23T10:06:44.164Z,109.77
2023-03-23T10:10:44.132Z,118.16
2023-03-23T10:14:44.422Z,184.32
2023-03-23T10:18:44.387Z,156.06
2023-03-23T10:22:44.005Z,143.09
2023-03-23T10:26:44.390Z,136.93
2023-03-23T10:30:44.393Z,106.88
2023-03-23T10:34:43.878Z,137.15
2023-03-23T10:38:43.918Z,137.25
2023-03-23T10:42:43.940Z,126.47
2023-03-23T10:46:48.177Z,114.12
2023-03-23T10:50:44.115Z,117.75
2023-03-23T10:54:44.124Z,63.16
2023-03-23T10:58:44.245Z,41.00
2023-03-23T11:02:44.316Z,54.54
2023-03-23T11:06:44.414Z,27.08
2023-03-23T11:10:44.488Z,71.48
2023-03-23T11:14:44.631Z,82.45
2023-03-23T11:18:44.728Z,86.55
2023-03-23T11:22:44.929Z,77.99
2023-03-23T11:26:53.497Z,68.70
2023-03-23T11:30:46.446Z,81.99
2023-03-23T11:34:45.131Z,99.08
2023-03-23T11:38:45.434Z,83.86
2023-03-23T11:42:45.423Z,53.22
2023-03-23T11:46:45.462Z,27.36
2023-03-23T11:50:45.578Z,166.57
2023-03-23T11:54:46.009Z,236.00
2023-03-23T11:58:45.967Z,104.63
2023-03-23T12:02:45.969Z,154.09
2023-03-23T12:06:45.938Z,154.78
2023-03-23T12:10:46.123Z,188.74
2023-03-23T12:14:45.969Z,192.99
2023-03-23T12:18:46.005Z,212.89
2023-03-23T12:22:45.438Z,234.69
2023-03-23T12:26:45.386Z,250.00
2023-03-23T12:30:45.363Z,250.00
2023-03-23T12:34:45.307Z,246.69
2023-03-23T12:38:45.313Z,248.48
2023-03-23T12:42:45.267Z,247.29
2023-03-23T12:46:45.206Z,247.63
2023-03-23T12:50:45.290Z,244.26
2023-03-23T12:54:45.371Z,242.82
2023-03-23T12:58:45.460Z,243.64
2023-03-23T13:02:45.564Z,239.72
2023-03-23T13:06:45.669Z,241.23
2023-03-23T13:10:45.747Z,235.59
2023-03-23T13:14:45.822Z,234.18
2023-03-23T13:18:45.880Z,231.31
2023-03-23T13:22:45.959Z,232.22
2023-03-23T13:26:46.001Z,229.53
2023-03-23T13:30:46.517Z,82.85
2023-03-23T13:34:46.172Z,45.48
2023-03-23T13:38:46.298Z,65.39
2023-03-23T13:42:46.432Z,46.97
2023-03-23T13:46:46.560Z,52.58
2023-03-23T13:50:46.703Z,51.34
2023-03-23T13:54:46.856Z,42.78
2023-03-23T13:58:48.741Z,52.01
2023-03-23T14:02:47.002Z,53.93
2023-03-23T14:06:47.003Z,35.16
2023-03-23T14:10:46.894Z,46.97
2023-03-23T14:14:46.860Z,50.00
2023-03-23T14:18:46.799Z,37.06
2023-03-23T14:22:46.757Z,29.44
2023-03-23T14:26:46.741Z,0.00
2023-03-23T14:30:46.698Z,0.00
2023-03-23T14:34:46.655Z,0.00
2023-03-23T14:38:46.999Z,67.84
2023-03-23T14:42:46.577Z,95.84
2023-03-23T14:46:46.615Z,134.30
2023-03-23T14:50:46.989Z,157.54
2023-03-23T14:54:46.993Z,183.90
2023-03-23T14:58:47.010Z,193.96
2023-03-23T15:02:47.091Z,220.10
2023-03-23T15:06:47.207Z,203.64
2023-03-23T15:10:47.387Z,211.19
2023-03-23T15:14:47.535Z,214.85
2023-03-23T15:18:47.703Z,222.17
2023-03-23T15:22:47.839Z,224.11
2023-03-23T15:26:48.006Z,231.29
2023-03-23T15:30:48.133Z,242.76
2023-03-23T15:34:48.261Z,246.16
2023-03-23T15:38:48.403Z,246.40
2023-03-23T15:42:48.508Z,248.60
2023-03-23T15:46:48.614Z,251.21
2023-03-23T15:50:48.746Z,245.72
2023-03-23T15:54:48.860Z,239.32
2023-03-23T15:58:49.018Z,235.31
